sensor_id;sensor_type;location;lat;lon;timestamp;P1;durP1;ratioP1;P2;durP2;ratioP2
14116;SDS011;7137;51.436;6.544;2022-11-21T00:00:10;37.23;;;26.47;;
14116;SDS011;7137;51.436;6.544;2022-11-21T00:03:12;35.83;;;25.40;;
14116;SDS011;7137;51.436;6.544;2022-11-21T00:06:14;34.17;;;26.30;;
14116;SDS011;7137;51.436;6.544;2022-11-21T00:09:18;35.13;;;25.70;;
14116;SDS011;7137;51.436;6.544;2022-11-21T00:12:21;36.17;;;26.80;;
14116;SDS011;7137;51.436;6.544;2022-11-21T00:15:23;37.50;;;26.17;;
14116;SDS011;7137;51.436;6.544;2022-11-21T00:18:25;36.37;;;25.40;;
14116;SDS011;7137;51.436;6.544;2022-11-21T00:21:27;36.97;;;26.30;;
14116;SDS011;7137;51.436;6.544;2022-11-21T00:24:28;37.30;;;26.80;;
14116;SDS011;7137;51.436;6.544;2022-11-21T00:27:31;35.93;;;25.33;;
14116;SDS011;7137;51.436;6.544;2022-11-21T00:30:33;36.63;;;25.60;;
14116;SDS011;7137;51.436;6.544;2022-11-21T00:33:34;32.50;;;25.70;;
14116;SDS011;7137;51.436;6.544;2022-11-21T00:36:38;32.53;;;24.97;;
14116;SDS011;7137;51.436;6.544;2022-11-21T00:39:39;32.40;;;24.13;;
14116;SDS011;7137;51.436;6.544;2022-11-21T00:42:42;32.17;;;25.73;;
14116;SDS011;7137;51.436;6.544;2022-11-21T00:45:44;31.57;;;24.43;;
14116;SDS011;7137;51.436;6.544;2022-11-21T00:48:46;34.80;;;26.27;;
14116;SDS011;7137;51.436;6.544;2022-11-21T00:51:48;30.50;;;23.40;;
14116;SDS011;7137;51.436;6.544;2022-11-21T00:54:49;30.37;;;23.73;;
14116;SDS011;7137;51.436;6.544;2022-11-21T00:57:52;32.20;;;25.13;;
14116;SDS011;7137;51.436;6.544;2022-11-21T01:01:01;31.67;;;25.43;;
14116;SDS011;7137;51.436;6.544;2022-11-21T01:04:04;31.97;;;25.23;;
14116;SDS011;7137;51.436;6.544;2022-11-21T01:07:05;32.13;;;25.57;;
14116;SDS011;7137;51.436;6.544;2022-11-21T01:10:07;36.27;;;27.10;;
14116;SDS011;7137;51.436;6.544;2022-11-21T01:13:10;34.03;;;25.90;;
14116;SDS011;7137;51.436;6.544;2022-11-21T01:16:12;34.20;;;26.07;;
14116;SDS011;7137;51.436;6.544;2022-11-21T01:19:15;33.23;;;25.50;;
14116;SDS011;7137;51.436;6.544;2022-11-21T01:22:17;34.20;;;27.17;;
14116;SDS011;7137;51.436;6.544;2022-11-21T01:25:18;38.80;;;27.40;;
14116;SDS011;7137;51.436;6.544;2022-11-21T01:28:21;35.77;;;26.53;;
14116;SDS011;7137;51.436;6.544;2022-11-21T01:31:23;37.10;;;27.03;;
14116;SDS011;7137;51.436;6.544;2022-11-21T01:34:27;36.57;;;26.57;;
14116;SDS011;7137;51.436;6.544;2022-11-21T01:37:29;35.90;;;26.63;;
14116;SDS011;7137;51.436;6.544;2022-11-21T01:40:36;36.60;;;27.07;;
14116;SDS011;7137;51.436;6.544;2022-11-21T01:43:41;37.60;;;26.93;;
14116;SDS011;7137;51.436;6.544;2022-11-21T01:46:43;36.93;;;26.97;;
14116;SDS011;7137;51.436;6.544;2022-11-21T01:49:44;36.97;;;26.97;;
14116;SDS011;7137;51.436;6.544;2022-11-21T01:52:47;35.53;;;26.60;;
14116;SDS011;7137;51.436;6.544;2022-11-21T01:55:48;38.90;;;27.60;;
14116;SDS011;7137;51.436;6.544;2022-11-21T01:58:52;37.03;;;26.63;;
14116;SDS011;7137;51.436;6.544;2022-11-21T02:01:58;36.57;;;26.50;;
14116;SDS011;7137;51.436;6.544;2022-11-21T02:05:04;35.17;;;26.40;;
14116;SDS011;7137;51.436;6.544;2022-11-21T02:08:09;36.87;;;26.37;;
14116;SDS011;7137;51.436;6.544;2022-11-21T02:11:15;35.00;;;27.20;;
14116;SDS011;7137;51.436;6.544;2022-11-21T02:14:23;34.93;;;26.90;;
14116;SDS011;7137;51.436;6.544;2022-11-21T02:17:25;36.87;;;26.87;;
14116;SDS011;7137;51.436;6.544;2022-11-21T02:20:28;35.73;;;27.03;;
14116;SDS011;7137;51.436;6.544;2022-11-21T02:23:31;33.40;;;25.80;;
14116;SDS011;7137;51.436;6.544;2022-11-21T02:26:41;33.10;;;25.70;;
14116;SDS011;7137;51.436;6.544;2022-11-21T02:29:43;36.67;;;27.00;;
14116;SDS011;7137;51.436;6.544;2022-11-21T02:32:45;35.70;;;27.03;;
14116;SDS011;7137;51.436;6.544;2022-11-21T02:35:54;37.37;;;27.57;;
14116;SDS011;7137;51.436;6.544;2022-11-21T02:38:58;35.53;;;26.23;;
14116;SDS011;7137;51.436;6.544;2022-11-21T02:42:03;37.70;;;27.13;;
14116;SDS011;7137;51.436;6.544;2022-11-21T02:45:10;34.57;;;26.60;;
14116;SDS011;7137;51.436;6.544;2022-11-21T02:48:16;38.47;;;27.30;;
14116;SDS011;7137;51.436;6.544;2022-11-21T02:51:17;38.20;;;28.60;;
14116;SDS011;7137;51.436;6.544;2022-11-21T02:54:19;36.37;;;27.60;;
14116;SDS011;7137;51.436;6.544;2022-11-21T02:57:22;34.60;;;24.83;;
14116;SDS011;7137;51.436;6.544;2022-11-21T03:00:23;37.73;;;27.43;;
14116;SDS011;7137;51.436;6.544;2022-11-21T03:03:25;40.53;;;27.73;;
14116;SDS011;7137;51.436;6.544;2022-11-21T03:06:27;39.40;;;28.37;;
14116;SDS011;7137;51.436;6.544;2022-11-21T03:09:28;44.07;;;28.67;;
14116;SDS011;7137;51.436;6.544;2022-11-21T03:12:31;40.90;;;28.80;;
14116;SDS011;7137;51.436;6.544;2022-11-21T03:15:35;40.03;;;27.83;;
14116;SDS011;7137;51.436;6.544;2022-11-21T03:18:37;43.37;;;29.73;;
14116;SDS011;7137;51.436;6.544;2022-11-21T03:21:38;48.00;;;30.53;;
14116;SDS011;7137;51.436;6.544;2022-11-21T03:24:40;44.00;;;29.20;;
14116;SDS011;7137;51.436;6.544;2022-11-21T03:27:43;50.13;;;30.70;;
14116;SDS011;7137;51.436;6.544;2022-11-21T03:30:44;45.43;;;28.43;;
14116;SDS011;7137;51.436;6.544;2022-11-21T03:33:47;46.17;;;30.00;;
14116;SDS011;7137;51.436;6.544;2022-11-21T03:36:48;46.67;;;28.77;;
14116;SDS011;7137;51.436;6.544;2022-11-21T03:39:50;46.80;;;30.00;;
14116;SDS011;7137;51.436;6.544;2022-11-21T03:42:53;44.60;;;28.97;;
14116;SDS011;7137;51.436;6.544;2022-11-21T03:45:55;45.10;;;29.27;;
14116;SDS011;7137;51.436;6.544;2022-11-21T03:48:56;47.13;;;27.77;;
14116;SDS011;7137;51.436;6.544;2022-11-21T03:51:58;34.33;;;20.97;;
14116;SDS011;7137;51.436;6.544;2022-11-21T03:55:00;35.77;;;22.93;;
14116;SDS011;7137;51.436;6.544;2022-11-21T03:58:02;35.43;;;23.70;;
14116;SDS011;7137;51.436;6.544;2022-11-21T04:01:04;40.33;;;23.23;;
14116;SDS011;7137;51.436;6.544;2022-11-21T04:04:06;43.37;;;25.57;;
14116;SDS011;7137;51.436;6.544;2022-11-21T04:07:07;40.00;;;24.80;;
14116;SDS011;7137;51.436;6.544;2022-11-21T04:10:10;45.63;;;25.90;;
14116;SDS011;7137;51.436;6.544;2022-11-21T04:13:13;39.87;;;23.93;;
14116;SDS011;7137;51.436;6.544;2022-11-21T04:16:15;38.60;;;25.07;;
14116;SDS011;7137;51.436;6.544;2022-11-21T04:19:16;43.50;;;25.73;;
14116;SDS011;7137;51.436;6.544;2022-11-21T04:22:18;42.63;;;25.30;;
14116;SDS011;7137;51.436;6.544;2022-11-21T04:25:19;39.73;;;24.43;;
14116;SDS011;7137;51.436;6.544;2022-11-21T04:28:22;40.70;;;25.03;;
14116;SDS011;7137;51.436;6.544;2022-11-21T04:31:24;37.73;;;24.13;;
14116;SDS011;7137;51.436;6.544;2022-11-21T04:34:25;37.73;;;23.93;;
14116;SDS011;7137;51.436;6.544;2022-11-21T04:37:27;37.03;;;24.50;;
14116;SDS011;7137;51.436;6.544;2022-11-21T04:40:28;41.43;;;25.07;;
14116;SDS011;7137;51.436;6.544;2022-11-21T04:43:31;39.67;;;25.13;;
14116;SDS011;7137;51.436;6.544;2022-11-21T04:46:32;41.70;;;26.17;;
14116;SDS011;7137;51.436;6.544;2022-11-21T04:49:34;41.97;;;25.10;;
14116;SDS011;7137;51.436;6.544;2022-11-21T04:52:35;38.57;;;25.67;;
14116;SDS011;7137;51.436;6.544;2022-11-21T04:55:37;37.93;;;25.73;;
14116;SDS011;7137;51.436;6.544;2022-11-21T04:58:40;38.63;;;25.87;;
14116;SDS011;7137;51.436;6.544;2022-11-21T05:01:42;39.83;;;26.10;;
14116;SDS011;7137;51.436;6.544;2022-11-21T05:04:43;40.23;;;25.47;;
14116;SDS011;7137;51.436;6.544;2022-11-21T05:07:45;40.77;;;27.20;;
14116;SDS011;7137;51.436;6.544;2022-11-21T05:10:46;37.37;;;26.20;;
14116;SDS011;7137;51.436;6.544;2022-11-21T05:14:07;43.67;;;26.60;;
14116;SDS011;7137;51.436;6.544;2022-11-21T05:17:08;41.10;;;25.83;;
14116;SDS011;7137;51.436;6.544;2022-11-21T05:20:10;38.23;;;25.47;;
14116;SDS011;7137;51.436;6.544;2022-11-21T05:23:12;43.10;;;27.40;;
14116;SDS011;7137;51.436;6.544;2022-11-21T05:26:14;39.83;;;26.27;;
14116;SDS011;7137;51.436;6.544;2022-11-21T05:29:16;41.43;;;26.87;;
14116;SDS011;7137;51.436;6.544;2022-11-21T05:32:18;42.63;;;26.83;;
14116;SDS011;7137;51.436;6.544;2022-11-21T05:35:20;43.83;;;28.13;;
14116;SDS011;7137;51.436;6.544;2022-11-21T05:38:21;41.00;;;26.33;;
14116;SDS011;7137;51.436;6.544;2022-11-21T05:41:23;40.63;;;27.43;;
14116;SDS011;7137;51.436;6.544;2022-11-21T05:44:26;41.80;;;27.10;;
14116;SDS011;7137;51.436;6.544;2022-11-21T05:47:27;43.70;;;27.60;;
14116;SDS011;7137;51.436;6.544;2022-11-21T05:50:29;42.23;;;27.10;;
14116;SDS011;7137;51.436;6.544;2022-11-21T05:53:31;42.63;;;27.07;;
14116;SDS011;7137;51.436;6.544;2022-11-21T05:56:33;41.67;;;27.40;;
14116;SDS011;7137;51.436;6.544;2022-11-21T05:59:36;42.70;;;28.63;;
14116;SDS011;7137;51.436;6.544;2022-11-21T06:02:38;43.53;;;27.10;;
14116;SDS011;7137;51.436;6.544;2022-11-21T06:05:57;45.47;;;28.60;;
14116;SDS011;7137;51.436;6.544;2022-11-21T06:09:01;45.33;;;28.10;;
14116;SDS011;7137;51.436;6.544;2022-11-21T06:12:03;45.67;;;28.53;;
14116;SDS011;7137;51.436;6.544;2022-11-21T06:15:07;40.90;;;27.50;;
14116;SDS011;7137;51.436;6.544;2022-11-21T06:18:09;41.30;;;25.87;;
14116;SDS011;7137;51.436;6.544;2022-11-21T06:21:12;39.83;;;26.03;;
14116;SDS011;7137;51.436;6.544;2022-11-21T06:24:15;42.10;;;26.20;;
14116;SDS011;7137;51.436;6.544;2022-11-21T06:27:17;42.07;;;26.53;;
14116;SDS011;7137;51.436;6.544;2022-11-21T06:30:22;37.80;;;25.00;;
14116;SDS011;7137;51.436;6.544;2022-11-21T06:33:27;36.60;;;24.17;;
14116;SDS011;7137;51.436;6.544;2022-11-21T06:36:29;38.77;;;25.77;;
14116;SDS011;7137;51.436;6.544;2022-11-21T06:39:32;37.50;;;23.60;;
14116;SDS011;7137;51.436;6.544;2022-11-21T06:42:34;36.60;;;24.03;;
14116;SDS011;7137;51.436;6.544;2022-11-21T06:45:37;35.57;;;23.00;;
14116;SDS011;7137;51.436;6.544;2022-11-21T06:48:38;39.17;;;25.67;;
14116;SDS011;7137;51.436;6.544;2022-11-21T06:51:40;38.60;;;23.67;;
14116;SDS011;7137;51.436;6.544;2022-11-21T06:54:42;36.87;;;23.90;;
14116;SDS011;7137;51.436;6.544;2022-11-21T06:57:43;39.30;;;24.57;;
14116;SDS011;7137;51.436;6.544;2022-11-21T07:00:46;46.17;;;27.30;;
14116;SDS011;7137;51.436;6.544;2022-11-21T07:03:48;46.80;;;26.40;;
14116;SDS011;7137;51.436;6.544;2022-11-21T07:06:50;39.77;;;24.47;;
14116;SDS011;7137;51.436;6.544;2022-11-21T07:09:52;39.63;;;25.07;;
14116;SDS011;7137;51.436;6.544;2022-11-21T07:12:55;45.27;;;26.97;;
14116;SDS011;7137;51.436;6.544;2022-11-21T07:16:16;48.17;;;28.23;;
14116;SDS011;7137;51.436;6.544;2022-11-21T07:19:18;44.03;;;26.90;;
14116;SDS011;7137;51.436;6.544;2022-11-21T07:22:19;42.30;;;27.87;;
14116;SDS011;7137;51.436;6.544;2022-11-21T07:25:21;46.60;;;27.07;;
14116;SDS011;7137;51.436;6.544;2022-11-21T07:28:22;46.33;;;25.93;;
14116;SDS011;7137;51.436;6.544;2022-11-21T07:31:25;46.47;;;26.87;;
14116;SDS011;7137;51.436;6.544;2022-11-21T07:34:27;44.97;;;25.43;;
14116;SDS011;7137;51.436;6.544;2022-11-21T07:37:28;45.90;;;26.80;;
14116;SDS011;7137;51.436;6.544;2022-11-21T07:40:30;49.20;;;27.03;;
14116;SDS011;7137;51.436;6.544;2022-11-21T07:43:33;47.80;;;26.70;;
14116;SDS011;7137;51.436;6.544;2022-11-21T07:46:36;44.33;;;26.07;;
14116;SDS011;7137;51.436;6.544;2022-11-21T07:49:39;43.83;;;26.43;;
14116;SDS011;7137;51.436;6.544;2022-11-21T07:52:40;45.60;;;25.67;;
14116;SDS011;7137;51.436;6.544;2022-11-21T07:55:42;42.47;;;25.13;;
14116;SDS011;7137;51.436;6.544;2022-11-21T07:58:43;43.00;;;25.63;;
14116;SDS011;7137;51.436;6.544;2022-11-21T08:01:46;42.77;;;24.57;;
14116;SDS011;7137;51.436;6.544;2022-11-21T08:04:48;45.80;;;25.47;;
14116;SDS011;7137;51.436;6.544;2022-11-21T08:07:49;43.93;;;25.23;;
14116;SDS011;7137;51.436;6.544;2022-11-21T08:10:51;44.93;;;26.60;;
14116;SDS011;7137;51.436;6.544;2022-11-21T08:13:53;46.80;;;26.40;;
14116;SDS011;7137;51.436;6.544;2022-11-21T08:16:55;51.50;;;26.33;;
14116;SDS011;7137;51.436;6.544;2022-11-21T08:19:58;47.77;;;26.93;;
14116;SDS011;7137;51.436;6.544;2022-11-21T08:23:01;41.17;;;24.37;;
14116;SDS011;7137;51.436;6.544;2022-11-21T08:26:02;44.70;;;26.23;;
14116;SDS011;7137;51.436;6.544;2022-11-21T08:29:04;51.60;;;27.83;;
14116;SDS011;7137;51.436;6.544;2022-11-21T08:32:07;42.57;;;25.87;;
14116;SDS011;7137;51.436;6.544;2022-11-21T08:35:08;45.00;;;25.17;;
14116;SDS011;7137;51.436;6.544;2022-11-21T08:38:10;45.20;;;25.90;;
14116;SDS011;7137;51.436;6.544;2022-11-21T08:41:12;38.17;;;24.80;;
14116;SDS011;7137;51.436;6.544;2022-11-21T08:44:39;43.93;;;26.63;;
14116;SDS011;7137;51.436;6.544;2022-11-21T08:47:42;46.47;;;25.73;;
14116;SDS011;7137;51.436;6.544;2022-11-21T08:50:43;45.23;;;25.87;;
14116;SDS011;7137;51.436;6.544;2022-11-21T08:53:46;45.23;;;25.90;;
14116;SDS011;7137;51.436;6.544;2022-11-21T08:56:48;44.77;;;26.40;;
14116;SDS011;7137;51.436;6.544;2022-11-21T08:59:49;46.20;;;26.40;;
14116;SDS011;7137;51.436;6.544;2022-11-21T09:02:52;44.03;;;24.57;;
14116;SDS011;7137;51.436;6.544;2022-11-21T09:05:55;45.67;;;27.00;;
14116;SDS011;7137;51.436;6.544;2022-11-21T09:08:56;46.43;;;25.27;;
14116;SDS011;7137;51.436;6.544;2022-11-21T09:11:59;44.93;;;25.20;;
14116;SDS011;7137;51.436;6.544;2022-11-21T09:15:01;39.27;;;24.40;;
14116;SDS011;7137;51.436;6.544;2022-11-21T09:18:21;37.93;;;23.60;;
14116;SDS011;7137;51.436;6.544;2022-11-21T09:21:22;37.43;;;24.43;;
14116;SDS011;7137;51.436;6.544;2022-11-21T09:24:24;38.00;;;24.00;;
14116;SDS011;7137;51.436;6.544;2022-11-21T09:27:26;34.00;;;22.47;;
14116;SDS011;7137;51.436;6.544;2022-11-21T09:30:27;25.60;;;18.10;;
14116;SDS011;7137;51.436;6.544;2022-11-21T09:33:30;22.80;;;16.07;;
14116;SDS011;7137;51.436;6.544;2022-11-21T09:36:32;18.67;;;15.27;;
14116;SDS011;7137;51.436;6.544;2022-11-21T09:39:33;18.33;;;12.93;;
14116;SDS011;7137;51.436;6.544;2022-11-21T09:42:51;14.97;;;12.67;;
14116;SDS011;7137;51.436;6.544;2022-11-21T09:46:05;14.17;;;11.70;;
14116;SDS011;7137;51.436;6.544;2022-11-21T09:49:12;13.80;;;12.17;;
14116;SDS011;7137;51.436;6.544;2022-11-21T09:52:16;17.00;;;14.20;;
14116;SDS011;7137;51.436;6.544;2022-11-21T09:55:23;15.93;;;14.20;;
14116;SDS011;7137;51.436;6.544;2022-11-21T09:58:34;16.13;;;14.43;;
14116;SDS011;7137;51.436;6.544;2022-11-21T10:01:39;15.10;;;13.50;;
14116;SDS011;7137;51.436;6.544;2022-11-21T10:04:42;16.93;;;13.70;;
14116;SDS011;7137;51.436;6.544;2022-11-21T10:07:45;13.77;;;12.10;;
14116;SDS011;7137;51.436;6.544;2022-11-21T10:10:49;14.97;;;10.93;;
14116;SDS011;7137;51.436;6.544;2022-11-21T10:13:59;12.13;;;9.47;;
14116;SDS011;7137;51.436;6.544;2022-11-21T10:17:16;11.00;;;9.53;;
14116;SDS011;7137;51.436;6.544;2022-11-21T10:20:29;12.07;;;9.93;;
14116;SDS011;7137;51.436;6.544;2022-11-21T10:23:37;13.87;;;10.03;;
14116;SDS011;7137;51.436;6.544;2022-11-21T10:26:55;11.43;;;9.33;;
14116;SDS011;7137;51.436;6.544;2022-11-21T10:30:02;12.53;;;8.97;;
14116;SDS011;7137;51.436;6.544;2022-11-21T10:33:10;11.00;;;9.13;;
14116;SDS011;7137;51.436;6.544;2022-11-21T10:36:20;12.73;;;9.60;;
14116;SDS011;7137;51.436;6.544;2022-11-21T10:39:32;10.20;;;9.10;;
14116;SDS011;7137;51.436;6.544;2022-11-21T10:42:38;9.50;;;7.73;;
14116;SDS011;7137;51.436;6.544;2022-11-21T10:45:46;12.70;;;8.57;;
14116;SDS011;7137;51.436;6.544;2022-11-21T10:48:48;13.30;;;8.30;;
14116;SDS011;7137;51.436;6.544;2022-11-21T10:51:59;10.73;;;7.70;;
14116;SDS011;7137;51.436;6.544;2022-11-21T10:55:09;12.47;;;8.30;;
14116;SDS011;7137;51.436;6.544;2022-11-21T10:58:15;13.47;;;6.93;;
14116;SDS011;7137;51.436;6.544;2022-11-21T11:01:19;11.77;;;7.40;;
14116;SDS011;7137;51.436;6.544;2022-11-21T11:04:22;10.20;;;6.90;;
14116;SDS011;7137;51.436;6.544;2022-11-21T11:07:26;11.40;;;6.70;;
14116;SDS011;7137;51.436;6.544;2022-11-21T11:10:28;9.60;;;6.60;;
14116;SDS011;7137;51.436;6.544;2022-11-21T11:13:31;12.17;;;6.83;;
14116;SDS011;7137;51.436;6.544;2022-11-21T11:16:50;10.93;;;6.10;;
14116;SDS011;7137;51.436;6.544;2022-11-21T11:19:58;10.40;;;6.17;;
14116;SDS011;7137;51.436;6.544;2022-11-21T11:23:24;10.90;;;6.00;;
14116;SDS011;7137;51.436;6.544;2022-11-21T11:26:28;10.37;;;5.50;;
14116;SDS011;7137;51.436;6.544;2022-11-21T11:29:31;13.03;;;6.00;;
14116;SDS011;7137;51.436;6.544;2022-11-21T11:32:37;8.77;;;5.40;;
14116;SDS011;7137;51.436;6.544;2022-11-21T11:35:40;9.53;;;5.50;;
14116;SDS011;7137;51.436;6.544;2022-11-21T11:38:44;10.93;;;5.63;;
14116;SDS011;7137;51.436;6.544;2022-11-21T11:42:05;11.23;;;5.90;;
14116;SDS011;7137;51.436;6.544;2022-11-21T11:49:31;9.20;;;4.87;;
14116;SDS011;7137;51.436;6.544;2022-11-21T11:53:01;9.33;;;4.97;;
14116;SDS011;7137;51.436;6.544;2022-11-21T11:56:10;10.90;;;5.37;;
14116;SDS011;7137;51.436;6.544;2022-11-21T11:59:17;9.53;;;4.93;;
14116;SDS011;7137;51.436;6.544;2022-11-21T12:02:24;8.70;;;4.77;;
14116;SDS011;7137;51.436;6.544;2022-11-21T12:05:35;9.23;;;4.23;;
14116;SDS011;7137;51.436;6.544;2022-11-21T12:08:42;8.70;;;4.23;;
14116;SDS011;7137;51.436;6.544;2022-11-21T12:11:53;7.43;;;3.63;;
14116;SDS011;7137;51.436;6.544;2022-11-21T12:15:09;11.07;;;4.23;;
14116;SDS011;7137;51.436;6.544;2022-11-21T12:18:33;9.27;;;3.60;;
14116;SDS011;7137;51.436;6.544;2022-11-21T12:21:40;8.40;;;3.40;;
14116;SDS011;7137;51.436;6.544;2022-11-21T12:24:41;9.47;;;3.40;;
14116;SDS011;7137;51.436;6.544;2022-11-21T12:27:44;8.37;;;3.30;;
14116;SDS011;7137;51.436;6.544;2022-11-21T12:31:02;6.87;;;3.03;;
14116;SDS011;7137;51.436;6.544;2022-11-21T12:34:12;6.80;;;3.33;;
14116;SDS011;7137;51.436;6.544;2022-11-21T12:37:28;8.10;;;3.50;;
14116;SDS011;7137;51.436;6.544;2022-11-21T12:40:42;7.83;;;3.33;;
14116;SDS011;7137;51.436;6.544;2022-11-21T12:43:55;9.17;;;3.00;;
14116;SDS011;7137;51.436;6.544;2022-11-21T12:47:07;8.40;;;2.73;;
14116;SDS011;7137;51.436;6.544;2022-11-21T12:50:19;7.77;;;2.80;;
14116;SDS011;7137;51.436;6.544;2022-11-21T12:53:42;7.93;;;2.83;;
14116;SDS011;7137;51.436;6.544;2022-11-21T12:57:10;5.23;;;2.47;;
14116;SDS011;7137;51.436;6.544;2022-11-21T13:00:16;8.47;;;2.47;;
14116;SDS011;7137;51.436;6.544;2022-11-21T13:03:40;6.03;;;2.57;;
14116;SDS011;7137;51.436;6.544;2022-11-21T13:06:51;7.60;;;2.37;;
14116;SDS011;7137;51.436;6.544;2022-11-21T13:09:57;6.57;;;2.40;;
14116;SDS011;7137;51.436;6.544;2022-11-21T13:13:02;7.63;;;1.90;;
14116;SDS011;7137;51.436;6.544;2022-11-21T13:16:14;7.13;;;2.20;;
14116;SDS011;7137;51.436;6.544;2022-11-21T13:19:41;6.60;;;2.23;;
14116;SDS011;7137;51.436;6.544;2022-11-21T13:22:50;6.97;;;2.20;;
14116;SDS011;7137;51.436;6.544;2022-11-21T13:25:56;6.73;;;2.40;;
14116;SDS011;7137;51.436;6.544;2022-11-21T13:29:06;7.73;;;2.30;;
14116;SDS011;7137;51.436;6.544;2022-11-21T13:46:20;5.60;;;1.87;;
14116;SDS011;7137;51.436;6.544;2022-11-21T13:50:06;5.77;;;1.90;;
14116;SDS011;7137;51.436;6.544;2022-11-21T13:57:01;5.63;;;1.80;;
14116;SDS011;7137;51.436;6.544;2022-11-21T14:00:16;6.17;;;1.90;;
14116;SDS011;7137;51.436;6.544;2022-11-21T14:03:43;8.20;;;2.40;;
14116;SDS011;7137;51.436;6.544;2022-11-21T14:10:29;8.07;;;2.47;;
14116;SDS011;7137;51.436;6.544;2022-11-21T14:13:34;5.70;;;1.87;;
14116;SDS011;7137;51.436;6.544;2022-11-21T14:16:40;6.57;;;2.33;;
14116;SDS011;7137;51.436;6.544;2022-11-21T14:19:47;5.37;;;2.17;;
14116;SDS011;7137;51.436;6.544;2022-11-21T14:22:57;5.03;;;1.93;;
14116;SDS011;7137;51.436;6.544;2022-11-21T14:26:03;5.13;;;2.10;;
14116;SDS011;7137;51.436;6.544;2022-11-21T14:29:17;5.23;;;1.80;;
14116;SDS011;7137;51.436;6.544;2022-11-21T14:32:24;8.33;;;1.97;;
14116;SDS011;7137;51.436;6.544;2022-11-21T14:35:27;5.07;;;2.17;;
14116;SDS011;7137;51.436;6.544;2022-11-21T14:38:31;5.90;;;1.97;;
14116;SDS011;7137;51.436;6.544;2022-11-21T14:41:36;5.40;;;1.80;;
14116;SDS011;7137;51.436;6.544;2022-11-21T14:44:39;5.80;;;1.87;;
14116;SDS011;7137;51.436;6.544;2022-11-21T14:47:45;5.80;;;1.70;;
14116;SDS011;7137;51.436;6.544;2022-11-21T14:50:48;5.33;;;1.67;;
14116;SDS011;7137;51.436;6.544;2022-11-21T14:53:51;3.97;;;1.43;;
14116;SDS011;7137;51.436;6.544;2022-11-21T14:56:56;3.83;;;1.40;;
14116;SDS011;7137;51.436;6.544;2022-11-21T15:00:00;4.40;;;1.27;;
14116;SDS011;7137;51.436;6.544;2022-11-21T15:03:14;4.73;;;1.53;;
14116;SDS011;7137;51.436;6.544;2022-11-21T15:06:19;3.80;;;1.40;;
14116;SDS011;7137;51.436;6.544;2022-11-21T15:09:22;6.63;;;1.53;;
14116;SDS011;7137;51.436;6.544;2022-11-21T15:12:26;5.80;;;1.80;;
14116;SDS011;7137;51.436;6.544;2022-11-21T15:15:31;3.53;;;1.47;;
14116;SDS011;7137;51.436;6.544;2022-11-21T15:18:36;4.50;;;1.30;;
14116;SDS011;7137;51.436;6.544;2022-11-21T15:21:42;4.13;;;1.50;;
14116;SDS011;7137;51.436;6.544;2022-11-21T15:24:46;5.33;;;1.30;;
14116;SDS011;7137;51.436;6.544;2022-11-21T15:27:48;4.37;;;1.53;;
14116;SDS011;7137;51.436;6.544;2022-11-21T15:34:24;3.60;;;1.30;;
14116;SDS011;7137;51.436;6.544;2022-11-21T15:37:32;5.07;;;1.83;;
14116;SDS011;7137;51.436;6.544;2022-11-21T15:40:35;4.93;;;2.03;;
14116;SDS011;7137;51.436;6.544;2022-11-21T15:43:38;3.63;;;1.73;;
14116;SDS011;7137;51.436;6.544;2022-11-21T15:46:41;5.87;;;2.17;;
14116;SDS011;7137;51.436;6.544;2022-11-21T15:49:45;5.00;;;1.83;;
14116;SDS011;7137;51.436;6.544;2022-11-21T15:52:47;4.97;;;2.20;;
14116;SDS011;7137;51.436;6.544;2022-11-21T15:55:52;4.83;;;2.00;;
14116;SDS011;7137;51.436;6.544;2022-11-21T15:58:53;7.43;;;2.30;;
14116;SDS011;7137;51.436;6.544;2022-11-21T16:01:55;6.97;;;2.60;;
14116;SDS011;7137;51.436;6.544;2022-11-21T16:04:56;6.33;;;2.27;;
14116;SDS011;7137;51.436;6.544;2022-11-21T16:07:58;5.63;;;2.00;;
14116;SDS011;7137;51.436;6.544;2022-11-21T16:11:01;5.40;;;2.00;;
14116;SDS011;7137;51.436;6.544;2022-11-21T16:14:03;6.30;;;1.80;;
14116;SDS011;7137;51.436;6.544;2022-11-21T16:17:06;4.83;;;2.10;;
14116;SDS011;7137;51.436;6.544;2022-11-21T16:20:08;6.33;;;2.00;;
14116;SDS011;7137;51.436;6.544;2022-11-21T16:23:10;4.33;;;1.27;;
14116;SDS011;7137;51.436;6.544;2022-11-21T16:26:13;4.57;;;1.77;;
14116;SDS011;7137;51.436;6.544;2022-11-21T16:29:15;5.27;;;1.87;;
14116;SDS011;7137;51.436;6.544;2022-11-21T16:32:17;5.67;;;1.90;;
14116;SDS011;7137;51.436;6.544;2022-11-21T16:35:18;4.43;;;1.60;;
14116;SDS011;7137;51.436;6.544;2022-11-21T16:38:20;5.53;;;1.70;;
14116;SDS011;7137;51.436;6.544;2022-11-21T16:41:23;5.73;;;1.67;;
14116;SDS011;7137;51.436;6.544;2022-11-21T16:44:25;4.73;;;1.40;;
14116;SDS011;7137;51.436;6.544;2022-11-21T16:47:30;7.80;;;2.00;;
14116;SDS011;7137;51.436;6.544;2022-11-21T16:50:31;5.67;;;1.80;;
14116;SDS011;7137;51.436;6.544;2022-11-21T16:53:33;4.37;;;1.80;;
14116;SDS011;7137;51.436;6.544;2022-11-21T16:56:37;8.10;;;3.47;;
14116;SDS011;7137;51.436;6.544;2022-11-21T16:59:39;4.00;;;1.40;;
14116;SDS011;7137;51.436;6.544;2022-11-21T17:02:41;5.00;;;1.73;;
14116;SDS011;7137;51.436;6.544;2022-11-21T17:05:42;5.63;;;2.40;;
14116;SDS011;7137;51.436;6.544;2022-11-21T17:08:44;5.57;;;1.80;;
14116;SDS011;7137;51.436;6.544;2022-11-21T17:11:47;7.33;;;2.47;;
14116;SDS011;7137;51.436;6.544;2022-11-21T17:14:49;7.77;;;2.30;;
14116;SDS011;7137;51.436;6.544;2022-11-21T17:17:50;4.50;;;2.03;;
14116;SDS011;7137;51.436;6.544;2022-11-21T17:20:52;6.23;;;2.13;;
14116;SDS011;7137;51.436;6.544;2022-11-21T17:23:54;6.00;;;2.10;;
14116;SDS011;7137;51.436;6.544;2022-11-21T17:26:57;6.57;;;2.27;;
14116;SDS011;7137;51.436;6.544;2022-11-21T17:30:00;5.17;;;2.03;;
14116;SDS011;7137;51.436;6.544;2022-11-21T17:33:01;5.77;;;2.30;;
14116;SDS011;7137;51.436;6.544;2022-11-21T17:36:03;9.57;;;2.03;;
14116;SDS011;7137;51.436;6.544;2022-11-21T17:39:05;6.57;;;2.10;;
14116;SDS011;7137;51.436;6.544;2022-11-21T17:42:08;4.77;;;2.07;;
14116;SDS011;7137;51.436;6.544;2022-11-21T17:45:10;6.67;;;2.10;;
14116;SDS011;7137;51.436;6.544;2022-11-21T17:48:11;5.77;;;2.10;;
14116;SDS011;7137;51.436;6.544;2022-11-21T17:51:14;5.50;;;1.90;;
14116;SDS011;7137;51.436;6.544;2022-11-21T17:54:17;6.40;;;1.97;;
14116;SDS011;7137;51.436;6.544;2022-11-21T17:57:20;7.40;;;2.20;;
14116;SDS011;7137;51.436;6.544;2022-11-21T18:00:21;7.73;;;2.20;;
14116;SDS011;7137;51.436;6.544;2022-11-21T18:03:23;8.13;;;2.50;;
14116;SDS011;7137;51.436;6.544;2022-11-21T18:06:26;6.17;;;2.07;;
14116;SDS011;7137;51.436;6.544;2022-11-21T18:09:28;6.93;;;2.10;;
14116;SDS011;7137;51.436;6.544;2022-11-21T18:12:32;5.07;;;1.80;;
14116;SDS011;7137;51.436;6.544;2022-11-21T18:15:33;7.90;;;2.00;;
14116;SDS011;7137;51.436;6.544;2022-11-21T18:18:35;7.43;;;2.43;;
14116;SDS011;7137;51.436;6.544;2022-11-21T18:21:37;5.90;;;2.20;;
14116;SDS011;7137;51.436;6.544;2022-11-21T18:24:38;6.83;;;2.20;;
14116;SDS011;7137;51.436;6.544;2022-11-21T18:27:41;8.57;;;2.53;;
14116;SDS011;7137;51.436;6.544;2022-11-21T18:30:43;8.03;;;2.33;;
14116;SDS011;7137;51.436;6.544;2022-11-21T18:33:46;8.77;;;2.60;;
14116;SDS011;7137;51.436;6.544;2022-11-21T18:36:49;6.30;;;2.47;;
14116;SDS011;7137;51.436;6.544;2022-11-21T18:39:50;7.03;;;2.10;;
14116;SDS011;7137;51.436;6.544;2022-11-21T18:42:53;7.07;;;2.37;;
14116;SDS011;7137;51.436;6.544;2022-11-21T18:46:00;6.17;;;2.40;;
14116;SDS011;7137;51.436;6.544;2022-11-21T18:49:02;8.03;;;2.43;;
14116;SDS011;7137;51.436;6.544;2022-11-21T18:52:04;6.50;;;2.23;;
14116;SDS011;7137;51.436;6.544;2022-11-21T18:55:05;6.10;;;2.50;;
14116;SDS011;7137;51.436;6.544;2022-11-21T18:58:08;8.70;;;2.43;;